Flugplatz Burgheim (UL)

Hier findest Du alle Informationen zum Flugplatz Burgheim (UL).

Informationen für Piloten zum Flugplatz Burgheim

Hier findest Du alle relevanten Informationen, die Du als Pilot benötigst, um Burgheim anzufliegen.

Flugplatz: Burgheim ICAO-Code: UL Flugplatz
Frequenz Turm: 122,3 Mhz GAFOR Gebiet: -
Frequenz Ground: 122,3 Mhz Mogas: ja
Platzrunde: SW 2000 ft Landegebühr: 5,00 €
Platzhöhe: Sunrise: 03:58 Uhr UTC
Pisten: 14/32 - 650 m x 60 m, GRAS Sunset: 18:44 Uhr UTC

Mitglieder, die in Burgheim fliegen

Flugwetter am Flugplatz Burgheim

Die METAR Information stammen aus EDMA (30.58 km entfernt).

METAR Code:
2020/07/26 11:50
EDMA 261150Z 20007KT 150V270 9999 FEW036 BKN043 23/15 Q1015

Flugschulen am Flugplatz Burgheim

Am Flugplatz Burgheim gibt es leider keine Flugschule.

Benachbarte Flugplätze und Flugschulen

Es gibt 14 weitere Flugplätze in einem Umkreis von 50 km um den Flugplatz Burgheim.

Jetzt anmelden

Passwort vergessen

Umfrage Archiv

Wären Rettungsgeräte keine Pflicht mehr, würdet Ihr Euer UL trotzdem mit einem ausstatten?

Ja
82.9 %
Nein
17.1 %
Stimmen: 251 | Diskussion
Anzeige: Roland Aircraft
Statistik Alle Mitglieder

Aktuell sind 36 Besucher online.

Anzeige: VFR Sprechfunk Simulator


Anzeige: Pocket FMS